createdAt,value
2017-11-30T00:01:16.260Z,16.93
2017-11-30T00:03:42.869Z,18.27
2017-11-30T00:06:09.465Z,16.50
2017-11-30T00:08:36.059Z,16.70
2017-11-30T00:11:02.669Z,17.07
2017-11-30T00:13:29.250Z,20.57
2017-11-30T00:15:55.835Z,18.10
2017-11-30T00:18:22.448Z,17.73
2017-11-30T00:20:49.040Z,15.77
2017-11-30T00:23:15.635Z,19.77
2017-11-30T00:25:42.231Z,16.90
2017-11-30T00:28:08.831Z,19.97
2017-11-30T00:30:35.420Z,18.73
2017-11-30T00:33:02.027Z,18.77
2017-11-30T00:35:28.619Z,18.70
2017-11-30T00:37:55.227Z,17.00
2017-11-30T00:40:21.835Z,17.87
2017-11-30T00:42:54.270Z,17.10
2017-11-30T00:45:20.855Z,19.10
2017-11-30T00:47:47.451Z,18.00
2017-11-30T00:50:14.044Z,16.80
2017-11-30T00:52:40.651Z,18.87
2017-11-30T00:55:07.244Z,16.40
2017-11-30T00:57:33.834Z,19.83
2017-11-30T01:00:00.447Z,16.73
2017-11-30T01:02:27.037Z,19.57
2017-11-30T01:04:53.632Z,20.47
2017-11-30T01:07:20.235Z,20.00
2017-11-30T01:09:46.833Z,22.10
2017-11-30T01:12:13.426Z,22.73
2017-11-30T01:14:40.047Z,18.30
2017-11-30T01:17:06.683Z,20.23
2017-11-30T01:19:33.333Z,19.93
2017-11-30T01:21:59.961Z,19.60
2017-11-30T01:24:26.554Z,17.03
2017-11-30T01:26:53.228Z,18.00
2017-11-30T01:29:19.823Z,17.13
2017-11-30T01:32:03.750Z,18.73
2017-11-30T01:34:30.355Z,19.50
2017-11-30T01:36:56.934Z,21.17
2017-11-30T01:39:23.519Z,18.70
2017-11-30T01:41:50.107Z,17.77
2017-11-30T01:44:16.695Z,18.10
2017-11-30T01:46:43.281Z,21.07
2017-11-30T01:49:09.866Z,20.70
2017-11-30T01:51:36.442Z,18.50
2017-11-30T01:54:03.033Z,20.63
2017-11-30T01:56:29.725Z,19.83
2017-11-30T01:58:56.293Z,18.73
2017-11-30T02:01:22.873Z,21.43
2017-11-30T02:03:49.453Z,19.10
2017-11-30T02:06:16.039Z,19.40
2017-11-30T02:08:42.631Z,19.27
2017-11-30T02:11:09.226Z,16.67
2017-11-30T02:13:35.815Z,20.30
2017-11-30T02:16:02.394Z,17.43
2017-11-30T02:18:28.978Z,19.80
2017-11-30T02:20:55.563Z,19.93
2017-11-30T02:23:22.164Z,21.20
2017-11-30T02:25:48.742Z,20.70
2017-11-30T02:28:15.328Z,20.90
2017-11-30T02:30:41.922Z,20.67
2017-11-30T02:33:08.511Z,18.77
2017-11-30T02:35:35.125Z,18.60
2017-11-30T02:38:01.718Z,19.23
2017-11-30T02:40:28.298Z,21.20
2017-11-30T02:42:54.890Z,18.60
2017-11-30T02:45:21.472Z,21.77
2017-11-30T02:47:48.079Z,21.40
2017-11-30T02:50:14.659Z,22.07
2017-11-30T02:52:41.275Z,17.83
2017-11-30T02:55:07.870Z,18.13
2017-11-30T02:57:34.459Z,18.40
2017-11-30T03:00:01.087Z,19.73
2017-11-30T03:02:27.679Z,19.67
2017-11-30T03:04:54.266Z,25.73
2017-11-30T03:07:20.876Z,22.03
2017-11-30T03:09:47.450Z,21.90
2017-11-30T03:12:14.066Z,19.27
2017-11-30T03:42:00.631Z,28.70
2017-11-30T03:44:27.232Z,27.03
2017-11-30T03:46:53.816Z,29.17
2017-11-30T03:49:20.420Z,25.40
2017-11-30T03:51:47.003Z,25.53
2017-11-30T03:54:13.593Z,24.20
2017-11-30T03:56:40.213Z,29.40
2017-11-30T03:59:06.805Z,28.80
2017-11-30T04:01:33.391Z,26.83
2017-11-30T04:04:00.022Z,29.10
2017-11-30T04:06:26.605Z,28.60
2017-11-30T04:08:53.191Z,29.90
2017-11-30T04:11:19.820Z,33.10
2017-11-30T04:13:46.405Z,36.70
2017-11-30T04:16:12.994Z,30.97
2017-11-30T04:18:39.591Z,34.80
2017-11-30T04:21:06.264Z,33.43
2017-11-30T04:23:32.890Z,36.87
2017-11-30T04:25:59.508Z,36.30
2017-11-30T04:28:26.095Z,38.63
2017-11-30T04:30:52.688Z,36.87
2017-11-30T04:33:19.302Z,34.70
2017-11-30T04:35:45.895Z,33.73
2017-11-30T04:38:12.480Z,38.00
2017-11-30T04:40:39.113Z,35.70
2017-11-30T04:43:05.698Z,36.80
2017-11-30T04:45:32.302Z,36.43
2017-11-30T04:47:58.915Z,31.70
2017-11-30T04:50:25.508Z,35.90
2017-11-30T04:52:52.096Z,36.57
2017-11-30T04:55:18.715Z,34.80
2017-11-30T04:57:45.300Z,34.17
2017-11-30T05:00:11.931Z,36.50
2017-11-30T05:02:38.542Z,34.93
2017-11-30T05:05:05.140Z,32.60
2017-11-30T05:07:31.747Z,30.60
2017-11-30T05:09:58.356Z,32.47
2017-11-30T05:12:24.949Z,31.53
2017-11-30T05:14:51.535Z,32.97
2017-11-30T05:17:18.147Z,32.00
2017-11-30T05:19:44.761Z,33.93
2017-11-30T05:22:11.347Z,35.37
2017-11-30T05:24:37.961Z,35.00
2017-11-30T05:27:04.590Z,39.07
2017-11-30T05:29:31.179Z,40.00
2017-11-30T05:31:57.777Z,36.87
2017-11-30T05:34:24.370Z,36.20
2017-11-30T05:36:50.987Z,35.57
2017-11-30T05:39:17.607Z,35.90
2017-11-30T05:41:44.212Z,42.00
2017-11-30T05:44:10.807Z,41.37
2017-11-30T05:46:37.415Z,41.47
2017-11-30T05:49:04.006Z,38.50
2017-11-30T05:51:30.591Z,39.10
2017-11-30T05:53:57.200Z,43.53
2017-11-30T05:56:23.788Z,42.93
2017-11-30T05:58:50.384Z,41.20
2017-11-30T06:01:16.999Z,41.10
2017-11-30T06:03:43.592Z,38.47
2017-11-30T06:06:10.187Z,36.27
2017-11-30T06:08:36.799Z,36.47
2017-11-30T06:11:03.395Z,39.20
2017-11-30T06:13:29.980Z,40.80
2017-11-30T06:15:56.581Z,42.77
2017-11-30T06:18:23.176Z,38.13
2017-11-30T06:20:49.775Z,37.90
2017-11-30T06:23:16.373Z,38.43
2017-11-30T06:25:42.969Z,35.90
2017-11-30T06:28:09.563Z,37.80
2017-11-30T06:30:36.164Z,37.97
2017-11-30T06:33:02.761Z,36.57
2017-11-30T06:35:29.343Z,34.33
2017-11-30T06:37:55.951Z,36.90
2017-11-30T06:40:22.547Z,36.30
2017-11-30T06:42:49.164Z,37.20
2017-11-30T06:45:15.763Z,36.33
2017-11-30T06:47:42.356Z,35.23
2017-11-30T06:50:08.950Z,37.40
2017-11-30T06:52:35.591Z,43.03
2017-11-30T06:55:02.164Z,39.83
2017-11-30T06:57:28.754Z,44.37
2017-11-30T06:59:55.364Z,39.27
2017-11-30T07:02:21.958Z,37.43
2017-11-30T07:04:48.546Z,41.90
2017-11-30T07:07:15.155Z,43.73
2017-11-30T07:09:41.744Z,42.37
2017-11-30T07:12:08.368Z,41.50
2017-11-30T07:14:34.987Z,44.20
2017-11-30T07:17:01.572Z,46.37
2017-11-30T07:19:28.171Z,52.77
2017-11-30T07:21:54.796Z,45.87
2017-11-30T07:24:21.391Z,45.20
2017-11-30T07:26:47.995Z,44.47
2017-11-30T07:29:14.615Z,41.97
2017-11-30T07:31:41.212Z,41.57
2017-11-30T07:34:09.123Z,43.40
2017-11-30T07:36:35.796Z,40.23
2017-11-30T07:39:02.385Z,40.83
2017-11-30T07:41:28.969Z,42.20
2017-11-30T07:43:55.598Z,42.30
2017-11-30T07:46:22.179Z,41.13
2017-11-30T07:48:48.771Z,42.67
2017-11-30T07:51:15.382Z,39.40
2017-11-30T07:53:41.971Z,42.83
2017-11-30T07:56:08.566Z,42.47
2017-11-30T07:58:35.168Z,45.63
2017-11-30T08:01:01.760Z,44.53
2017-11-30T08:03:28.352Z,44.73
2017-11-30T08:05:54.955Z,45.23
2017-11-30T08:08:21.539Z,37.13
2017-11-30T08:10:48.144Z,40.40
2017-11-30T08:13:14.759Z,43.00
2017-11-30T08:15:41.351Z,40.83
2017-11-30T08:18:07.952Z,41.00
2017-11-30T08:20:34.568Z,35.43
2017-11-30T08:23:01.178Z,36.93
2017-11-30T08:25:27.771Z,36.40
2017-11-30T08:27:54.368Z,37.23
2017-11-30T08:30:20.964Z,34.93
2017-11-30T08:32:47.578Z,36.50
2017-11-30T08:35:14.165Z,34.83
2017-11-30T08:37:40.772Z,37.17
2017-11-30T08:40:07.347Z,42.60
2017-11-30T08:42:33.974Z,38.03
2017-11-30T08:45:00.641Z,44.33
2017-11-30T08:47:27.219Z,49.80
2017-11-30T08:49:53.843Z,44.33
2017-11-30T08:52:20.442Z,38.93
2017-11-30T08:54:47.052Z,37.90
2017-11-30T08:57:13.655Z,39.93
2017-11-30T08:59:40.251Z,41.70
2017-11-30T09:02:06.857Z,44.20
2017-11-30T09:04:33.448Z,40.33
2017-11-30T09:07:00.036Z,42.00
2017-11-30T09:09:26.627Z,39.33
2017-11-30T09:11:53.227Z,42.07
2017-11-30T09:14:19.820Z,35.47
2017-11-30T09:16:46.407Z,39.80
2017-11-30T09:19:13.014Z,35.03
2017-11-30T09:21:39.604Z,35.90
2017-11-30T09:24:06.193Z,38.70
2017-11-30T09:26:32.792Z,39.37
2017-11-30T09:28:59.434Z,44.10
2017-11-30T09:31:26.019Z,50.20
2017-11-30T09:33:52.625Z,37.70
2017-11-30T09:36:19.211Z,40.63
2017-11-30T09:38:45.807Z,38.90
2017-11-30T09:41:12.415Z,42.10
2017-11-30T09:43:39.035Z,43.70
2017-11-30T09:46:05.620Z,44.97
2017-11-30T09:48:32.230Z,46.77
2017-11-30T09:50:58.803Z,49.20
2017-11-30T09:53:25.392Z,47.53
2017-11-30T09:55:51.993Z,55.17
2017-11-30T09:58:18.583Z,55.20
2017-11-30T10:00:45.179Z,45.13
2017-11-30T10:03:11.786Z,43.73
2017-11-30T10:05:38.373Z,50.27
2017-11-30T10:08:04.963Z,39.40
2017-11-30T10:10:31.588Z,42.97
2017-11-30T10:12:58.181Z,35.70
2017-11-30T10:15:24.774Z,38.63
2017-11-30T10:17:51.388Z,43.10
2017-11-30T10:20:17.984Z,42.77
2017-11-30T10:22:44.568Z,42.47
2017-11-30T10:25:11.172Z,38.23
2017-11-30T10:27:37.772Z,38.23
2017-11-30T10:30:04.364Z,37.70
2017-11-30T10:32:31.040Z,41.30
2017-11-30T10:34:58.192Z,36.73
2017-11-30T10:37:24.792Z,40.70
2017-11-30T10:39:51.410Z,36.87
2017-11-30T10:42:17.999Z,40.53
2017-11-30T10:44:44.588Z,40.50
2017-11-30T10:47:11.208Z,37.50
2017-11-30T10:49:37.808Z,36.30
2017-11-30T10:52:04.392Z,47.47
2017-11-30T10:54:31.000Z,42.27
2017-11-30T10:56:57.604Z,42.07
2017-11-30T10:59:24.191Z,48.63
2017-11-30T11:01:50.799Z,39.50
2017-11-30T11:04:17.401Z,37.70
2017-11-30T11:06:43.991Z,40.00
2017-11-30T11:09:10.601Z,35.80
2017-11-30T11:11:37.229Z,36.20
2017-11-30T11:14:03.854Z,36.50
2017-11-30T11:16:30.527Z,30.47
2017-11-30T11:18:57.124Z,28.70
2017-11-30T11:21:23.712Z,25.93
2017-11-30T11:23:50.315Z,21.93
2017-11-30T11:26:16.995Z,19.30
2017-11-30T11:28:43.634Z,18.03
2017-11-30T11:31:10.230Z,20.87
2017-11-30T11:33:36.835Z,16.70
2017-11-30T11:36:03.425Z,17.67
2017-11-30T11:41:03.180Z,18.73
2017-11-30T11:43:29.783Z,19.60
2017-11-30T11:45:56.376Z,20.90
2017-11-30T11:48:22.955Z,19.70
2017-11-30T11:50:49.592Z,19.73
2017-11-30T11:53:16.180Z,17.13
2017-11-30T11:55:42.784Z,20.57
2017-11-30T11:58:09.394Z,18.67
2017-11-30T12:00:36.010Z,21.03
2017-11-30T12:03:02.596Z,20.70
2017-11-30T12:05:29.203Z,20.27
2017-11-30T12:07:55.791Z,20.50
2017-11-30T12:10:22.385Z,22.77
2017-11-30T12:12:49.012Z,23.53
2017-11-30T12:15:15.612Z,17.53
2017-11-30T12:17:42.208Z,18.67
2017-11-30T12:20:08.840Z,19.77
2017-11-30T12:22:35.424Z,23.20
2017-11-30T12:25:02.021Z,20.53
2017-11-30T12:27:28.627Z,17.60
2017-11-30T12:29:55.227Z,17.87
2017-11-30T12:32:23.347Z,18.23
2017-11-30T12:34:49.952Z,18.30
2017-11-30T12:37:16.539Z,18.23
2017-11-30T12:39:43.129Z,20.70
2017-11-30T12:42:09.733Z,21.13
2017-11-30T12:44:36.331Z,18.83
2017-11-30T12:47:02.919Z,25.73
2017-11-30T12:49:29.529Z,19.97
2017-11-30T12:51:56.119Z,19.40
2017-11-30T12:54:22.711Z,19.37
2017-11-30T12:56:49.315Z,20.60
2017-11-30T12:59:15.906Z,21.60
2017-11-30T13:01:42.674Z,18.67
2017-11-30T13:04:09.266Z,9.53
2017-11-30T13:06:35.856Z,8.43
2017-11-30T13:09:02.437Z,8.53
2017-11-30T13:11:29.031Z,6.77
2017-11-30T13:13:55.617Z,8.43
2017-11-30T13:16:22.218Z,10.70
2017-11-30T13:18:48.809Z,8.00
2017-11-30T13:21:15.394Z,7.67
2017-11-30T13:23:41.975Z,6.13
2017-11-30T13:26:08.575Z,6.43
2017-11-30T13:28:35.179Z,5.87
2017-11-30T13:31:01.766Z,7.30
2017-11-30T13:33:28.455Z,7.40
2017-11-30T13:35:55.019Z,7.70
2017-11-30T13:38:21.614Z,9.20
2017-11-30T13:40:48.206Z,9.43
2017-11-30T13:43:14.781Z,7.27
2017-11-30T13:45:41.366Z,6.30
2017-11-30T13:48:07.967Z,8.17
2017-11-30T13:50:34.544Z,8.60
2017-11-30T13:53:01.135Z,8.40
2017-11-30T13:55:27.717Z,8.27
2017-11-30T13:57:54.303Z,9.87
2017-11-30T14:00:20.892Z,10.40
2017-11-30T14:02:47.497Z,8.43
2017-11-30T14:05:14.078Z,9.33
2017-11-30T14:07:40.674Z,9.53
2017-11-30T14:10:07.321Z,9.00
2017-11-30T14:12:33.906Z,9.73
2017-11-30T14:15:00.499Z,6.60
2017-11-30T14:17:27.097Z,7.30
2017-11-30T14:19:53.687Z,10.60
2017-11-30T14:22:20.274Z,9.73
2017-11-30T14:24:46.864Z,8.13
2017-11-30T14:27:13.447Z,6.07
2017-11-30T14:29:40.034Z,6.93
2017-11-30T14:32:06.631Z,5.80
2017-11-30T14:34:33.255Z,5.97
2017-11-30T14:36:59.805Z,6.07
2017-11-30T14:39:26.394Z,7.30
2017-11-30T14:41:52.975Z,7.53
2017-11-30T14:44:19.554Z,10.03
2017-11-30T14:46:46.230Z,7.37
2017-11-30T14:49:12.785Z,8.80
2017-11-30T14:51:39.379Z,8.10
2017-11-30T14:54:05.969Z,9.10
2017-11-30T14:56:32.558Z,8.10
2017-11-30T14:58:59.141Z,11.50
2017-11-30T15:01:25.737Z,10.97
2017-11-30T15:03:52.349Z,10.93
2017-11-30T15:06:18.926Z,9.53
2017-11-30T15:08:45.522Z,10.67
2017-11-30T15:11:12.117Z,11.50
2017-11-30T15:13:38.698Z,13.00
2017-11-30T15:16:05.295Z,9.50
2017-11-30T15:18:31.885Z,11.10
2017-11-30T15:20:58.485Z,12.30
2017-11-30T15:23:25.094Z,13.70
2017-11-30T15:25:51.678Z,14.17
2017-11-30T15:28:18.266Z,13.50
2017-11-30T15:30:44.868Z,15.07
2017-11-30T15:33:11.454Z,16.27
2017-11-30T15:35:38.066Z,19.40
2017-11-30T15:38:04.718Z,15.33
2017-11-30T15:40:31.313Z,16.53
2017-11-30T15:42:57.901Z,15.10
2017-11-30T15:45:24.516Z,14.70
2017-11-30T15:47:51.110Z,16.87
2017-11-30T15:50:17.698Z,16.20
2017-11-30T15:52:44.311Z,15.60
2017-11-30T15:55:10.906Z,18.70
2017-11-30T15:57:37.510Z,16.00
2017-11-30T16:00:04.118Z,18.20
2017-11-30T16:02:30.714Z,17.67
2017-11-30T16:04:57.308Z,18.23
2017-11-30T16:07:23.927Z,19.67
2017-11-30T16:09:50.514Z,19.90
2017-11-30T16:12:17.099Z,17.63
2017-11-30T16:14:43.706Z,22.13
2017-11-30T16:17:10.303Z,16.60
2017-11-30T16:19:36.894Z,20.60
2017-11-30T16:22:03.489Z,17.30
2017-11-30T16:24:30.096Z,22.53
2017-11-30T16:26:56.677Z,23.90
2017-11-30T16:29:23.299Z,22.00
2017-11-30T16:31:49.879Z,23.47
2017-11-30T16:34:16.479Z,21.73
2017-11-30T16:36:43.101Z,22.00
2017-11-30T16:39:09.704Z,21.10
2017-11-30T16:41:36.351Z,29.07
2017-11-30T16:44:02.942Z,21.57
2017-11-30T16:46:29.530Z,21.90
2017-11-30T16:48:56.122Z,27.10
2017-11-30T16:51:22.721Z,23.47
2017-11-30T16:53:49.322Z,25.90
2017-11-30T16:56:21.714Z,20.60
2017-11-30T16:58:48.317Z,23.27
2017-11-30T17:01:14.910Z,21.27
2017-11-30T17:03:41.518Z,19.07
2017-11-30T17:06:08.114Z,18.20
2017-11-30T17:08:34.715Z,19.93
2017-11-30T17:11:01.302Z,19.10
2017-11-30T17:13:27.929Z,21.03
2017-11-30T17:15:54.523Z,24.33
2017-11-30T17:18:21.114Z,24.50
2017-11-30T17:20:47.751Z,24.17
2017-11-30T17:23:14.330Z,28.93
2017-11-30T17:25:40.928Z,31.80
2017-11-30T17:28:07.534Z,24.07
2017-11-30T17:30:34.122Z,22.00
2017-11-30T17:33:00.718Z,19.57
2017-11-30T17:35:27.322Z,17.33
2017-11-30T17:37:53.931Z,16.80
2017-11-30T17:40:20.566Z,17.17
2017-11-30T17:42:47.161Z,18.17
2017-11-30T17:45:13.745Z,19.20
2017-11-30T17:47:40.342Z,17.57
2017-11-30T17:50:06.956Z,20.97
2017-11-30T17:52:33.542Z,20.17
2017-11-30T17:55:00.136Z,19.37
2017-11-30T17:57:26.738Z,21.67
2017-11-30T17:59:53.350Z,20.60
2017-11-30T18:02:19.962Z,22.87
2017-11-30T18:04:46.571Z,19.10
2017-11-30T18:07:13.167Z,20.13
2017-11-30T18:09:39.746Z,20.43
2017-11-30T18:12:06.379Z,23.47
2017-11-30T18:14:32.976Z,20.43
2017-11-30T18:16:59.570Z,23.33
2017-11-30T18:19:26.190Z,21.30
2017-11-30T18:21:52.783Z,18.73
2017-11-30T18:24:19.423Z,21.67
2017-11-30T18:26:46.113Z,19.93
2017-11-30T18:29:12.717Z,23.87
2017-11-30T18:31:39.312Z,25.60
2017-11-30T18:34:05.917Z,25.30
2017-11-30T18:36:32.670Z,25.03
2017-11-30T18:38:59.262Z,23.07
2017-11-30T18:41:25.999Z,28.47
2017-11-30T18:43:52.595Z,23.70
2017-11-30T18:46:19.182Z,23.60
2017-11-30T18:48:45.787Z,24.63
2017-11-30T18:51:12.374Z,23.83
2017-11-30T18:53:38.962Z,24.90
2017-11-30T18:56:05.587Z,24.10
2017-11-30T18:58:32.179Z,28.43
2017-11-30T19:00:58.778Z,25.00
2017-11-30T19:03:25.388Z,30.10
2017-11-30T19:05:51.978Z,26.27
2017-11-30T19:08:18.569Z,23.43
2017-11-30T19:10:45.175Z,28.08
2017-11-30T19:13:11.775Z,20.93
2017-11-30T19:15:38.371Z,20.40
2017-11-30T19:18:05.031Z,22.23
2017-11-30T19:20:31.632Z,24.27
2017-11-30T19:22:58.218Z,19.83
2017-11-30T19:25:24.824Z,22.53
2017-11-30T19:27:51.410Z,23.70
2017-11-30T19:30:17.999Z,23.67
2017-11-30T19:32:44.598Z,20.47
2017-11-30T19:35:11.196Z,25.23
2017-11-30T19:37:37.823Z,21.07
2017-11-30T19:40:04.475Z,22.57
2017-11-30T19:42:31.055Z,21.20
2017-11-30T19:44:57.647Z,29.50
2017-11-30T19:47:24.253Z,28.87
2017-11-30T19:49:50.849Z,32.30
2017-11-30T19:52:17.442Z,31.87
2017-11-30T19:54:44.098Z,31.63
2017-11-30T19:57:10.718Z,32.20
2017-11-30T19:59:37.324Z,29.00
2017-11-30T20:02:03.935Z,27.17
2017-11-30T20:04:30.522Z,24.30
2017-11-30T20:06:57.114Z,22.03
2017-11-30T20:09:23.730Z,25.33
2017-11-30T20:11:50.314Z,22.13
2017-11-30T20:14:16.918Z,26.60
2017-11-30T20:16:43.534Z,25.00
2017-11-30T20:19:10.835Z,26.20
2017-11-30T20:21:37.435Z,25.90
2017-11-30T20:24:04.042Z,25.87
2017-11-30T20:26:30.626Z,26.43
2017-11-30T20:28:57.219Z,24.17
2017-11-30T20:31:23.818Z,23.27
2017-11-30T20:33:50.427Z,23.63
2017-11-30T20:36:17.014Z,27.73
2017-11-30T20:38:43.627Z,24.37
2017-11-30T20:41:10.209Z,22.90
2017-11-30T20:43:36.805Z,22.27
2017-11-30T20:46:03.443Z,25.43
2017-11-30T20:48:30.034Z,25.93
2017-11-30T20:50:56.744Z,25.27
2017-11-30T20:53:23.370Z,21.93
2017-11-30T20:55:49.958Z,24.73
2017-11-30T20:58:16.559Z,21.20
2017-11-30T21:00:43.165Z,23.00
2017-11-30T21:03:09.762Z,23.03
2017-11-30T21:05:36.358Z,18.80
2017-11-30T21:08:03.038Z,18.60
2017-11-30T21:10:29.574Z,18.93
2017-11-30T21:12:56.175Z,23.67
2017-11-30T21:15:22.850Z,20.10
2017-11-30T21:17:49.477Z,21.97
2017-11-30T21:20:16.067Z,27.67
2017-11-30T21:22:42.677Z,27.53
2017-11-30T21:25:09.280Z,24.40
2017-11-30T21:27:35.870Z,26.00
2017-11-30T21:30:02.482Z,23.20
2017-11-30T21:32:29.075Z,26.73
2017-11-30T21:34:55.666Z,23.27
2017-11-30T21:37:22.269Z,22.00
2017-11-30T21:39:48.861Z,19.30
2017-11-30T21:42:15.450Z,20.87
2017-11-30T21:44:42.054Z,23.30
2017-11-30T21:47:08.657Z,19.90
2017-11-30T21:49:35.244Z,17.90
2017-11-30T21:52:01.921Z,20.00
2017-11-30T21:54:28.508Z,21.13
2017-11-30T21:56:55.091Z,22.77
2017-11-30T21:59:21.736Z,21.40
2017-11-30T22:01:48.341Z,27.47
2017-11-30T22:04:14.932Z,27.10
2017-11-30T22:06:41.535Z,26.50
2017-11-30T22:09:08.139Z,26.67
2017-11-30T22:11:34.739Z,23.50
2017-11-30T22:14:01.433Z,24.40
2017-11-30T22:16:28.022Z,24.67
2017-11-30T22:18:54.645Z,23.13
2017-11-30T22:21:21.242Z,22.10
2017-11-30T22:23:47.834Z,24.10
2017-11-30T22:26:14.430Z,22.40
2017-11-30T22:28:41.030Z,25.60
2017-11-30T22:31:07.636Z,23.37
2017-11-30T22:33:34.228Z,20.60
2017-11-30T22:36:00.842Z,20.20
2017-11-30T22:38:27.449Z,21.00
2017-11-30T22:40:54.034Z,21.30
2017-11-30T22:43:20.650Z,21.90
2017-11-30T22:45:47.242Z,21.20
2017-11-30T22:48:13.838Z,18.80
2017-11-30T22:50:40.453Z,20.87
2017-11-30T22:53:07.074Z,20.30
2017-11-30T22:55:33.666Z,20.97
2017-11-30T22:58:00.279Z,19.07
2017-11-30T23:00:32.751Z,21.17
2017-11-30T23:03:00.188Z,20.47
2017-11-30T23:05:26.782Z,22.13
2017-11-30T23:07:53.374Z,21.37
2017-11-30T23:10:19.978Z,21.63
2017-11-30T23:12:46.578Z,20.40
2017-11-30T23:15:13.170Z,21.53
2017-11-30T23:17:39.805Z,21.70
2017-11-30T23:20:06.399Z,21.17
2017-11-30T23:22:32.991Z,22.30
2017-11-30T23:24:59.618Z,22.50
2017-11-30T23:27:26.216Z,24.60
2017-11-30T23:29:52.814Z,25.83
2017-11-30T23:32:19.432Z,23.57
2017-11-30T23:34:46.017Z,24.13
2017-11-30T23:37:12.602Z,23.03
2017-11-30T23:39:39.200Z,22.00
2017-11-30T23:42:05.791Z,21.87
2017-11-30T23:44:32.377Z,23.70
2017-11-30T23:46:58.982Z,27.13
2017-11-30T23:49:25.572Z,24.70
2017-11-30T23:51:52.161Z,24.40
2017-11-30T23:54:18.757Z,24.03
2017-11-30T23:56:45.344Z,23.60
2017-11-30T23:59:11.938Z,21.00
